Nutol, Philippines
Current Conditions -  °F | °C
As of 12:00 PM on Thursday 23 Oct 2014 (Local Time) from RPMD Reporting Station
Broken Clouds Broken Clouds  
Wind Chill: 91°   Ceiling: 29000
Heat Index: 102°   Visibility: 4mi
Dew Point: 75°   Wind: 3mph
Humidity: 59%   Direction: NA
Pressure: 29.77"   Gusts: NA
Location:  6.19°N, 125.14°E
Report Text: RPMD 230400Z VRB03KT 6000 FEW015CB BKN290 33/24 Q1008 RMK A2977 CB SE QD
Loading
Personal Weather Stations






























Interactive Weather Map
Tropical Storm Tracking
New forecast layout! Learn more

10-Day Weather Forecast

Advertisements
Track Severe Weather on mobile